Weather at Copenhagen Kastrup Airport

Public forecast

Using degrees Celsius for public forecast. Weather courtesy of forecast.io.

Current aviation weather report (METAR) for Copenhagen Kastrup Airport

Retrieved 2022/05/23 07:20 UTC (9 minutes ago):

EKCH 230720Z AUTO 15007KT 9999 NCD 15/10 Q1012 NOSIG

Aviation forecast (TAF) for Copenhagen Kastrup Airport

Retrieved 2022/05/23 06:38 UTC (51 minutes ago):

TAF EKCH 230531Z 2306/2406 14010KT CAVOK BECMG 2320/2322 10018G28KT TEMPO 2403/2406 13022G35KT